createdAt,value
2018-09-26T00:03:01.651Z,9.27
2018-09-26T00:05:30.510Z,9.27
2018-09-26T00:07:59.383Z,9.27
2018-09-26T00:10:28.204Z,9.21
2018-09-26T00:12:57.275Z,9.13
2018-09-26T00:15:26.311Z,9.11
2018-09-26T00:17:55.144Z,9.31
2018-09-26T00:20:23.982Z,9.24
2018-09-26T00:22:53.135Z,9.14
2018-09-26T00:25:21.917Z,9.18
2018-09-26T00:27:50.707Z,9.23
2018-09-26T00:30:19.481Z,9.24
2018-09-26T00:32:48.464Z,9.25
2018-09-26T00:35:17.318Z,9.18
2018-09-26T00:37:46.438Z,9.09
2018-09-26T00:40:15.194Z,9.28
2018-09-26T00:42:43.999Z,9.18
2018-09-26T00:45:13.131Z,9.29
2018-09-26T00:47:42.267Z,9.14
2018-09-26T00:50:11.039Z,9.32
2018-09-26T00:52:40.162Z,9.34
2018-09-26T00:55:08.962Z,9.24
2018-09-26T00:57:37.783Z,9.33
2018-09-26T01:00:06.989Z,9.34
2018-09-26T01:02:35.768Z,9.25
2018-09-26T01:05:04.707Z,9.15
2018-09-26T01:07:33.465Z,9.14
2018-09-26T01:10:02.379Z,9.21
2018-09-26T01:12:31.155Z,9.20
2018-09-26T01:14:59.963Z,9.22
2018-09-26T01:17:28.850Z,9.04
2018-09-26T01:19:57.662Z,9.10
2018-09-26T01:22:26.578Z,9.21
2018-09-26T01:24:55.370Z,8.98
2018-09-26T01:27:24.168Z,8.82
2018-09-26T01:29:53.327Z,8.95
2018-09-26T01:32:22.106Z,9.01
2018-09-26T01:34:50.972Z,8.96
2018-09-26T01:37:19.727Z,8.94
2018-09-26T01:39:48.535Z,8.81
2018-09-26T01:42:17.410Z,8.81
2018-09-26T01:44:46.526Z,8.68
2018-09-26T01:47:15.465Z,8.74
2018-09-26T01:49:44.318Z,8.83
2018-09-26T01:52:13.125Z,8.88
2018-09-26T01:54:41.928Z,8.83
2018-09-26T01:57:10.699Z,8.71
2018-09-26T01:59:39.616Z,8.68
2018-09-26T02:02:08.442Z,8.79
2018-09-26T02:04:37.239Z,8.72
2018-09-26T02:07:06.068Z,8.59
2018-09-26T02:09:34.857Z,8.68
2018-09-26T02:12:03.780Z,8.48
2018-09-26T02:14:32.564Z,8.62
2018-09-26T02:17:01.367Z,8.36
2018-09-26T02:19:30.151Z,8.63
2018-09-26T02:21:58.996Z,8.56
2018-09-26T02:24:27.834Z,8.50
2018-09-26T02:26:56.663Z,8.47
2018-09-26T02:29:25.452Z,8.42
2018-09-26T02:31:54.299Z,8.43
2018-09-26T02:34:23.052Z,8.55
2018-09-26T02:36:51.940Z,8.45
2018-09-26T02:39:20.707Z,8.53
2018-09-26T02:41:49.594Z,8.44
2018-09-26T02:44:18.396Z,8.49
2018-09-26T02:46:47.256Z,8.47
2018-09-26T02:49:16.283Z,8.47
2018-09-26T02:51:45.068Z,8.48
2018-09-26T02:54:13.888Z,8.42
2018-09-26T02:56:42.655Z,8.47
2018-09-26T02:59:11.516Z,8.41
2018-09-26T03:01:40.359Z,8.39
2018-09-26T03:04:09.160Z,8.45
2018-09-26T03:06:37.932Z,8.52
2018-09-26T03:09:08.354Z,8.37
2018-09-26T03:11:37.123Z,8.36
2018-09-26T03:14:06.010Z,8.40
2018-09-26T03:16:34.807Z,8.44
2018-09-26T03:19:03.649Z,8.35
2018-09-26T03:21:32.386Z,8.41
2018-09-26T03:24:01.171Z,8.22
2018-09-26T03:26:30.004Z,8.31
2018-09-26T03:28:58.843Z,8.40
2018-09-26T03:31:27.975Z,8.29
2018-09-26T03:33:56.835Z,8.29
2018-09-26T03:36:25.578Z,8.23
2018-09-26T03:38:54.692Z,8.14
2018-09-26T03:41:23.455Z,8.33
2018-09-26T03:43:52.311Z,8.26
2018-09-26T03:46:27.088Z,8.27
2018-09-26T03:48:55.986Z,8.26
2018-09-26T03:51:24.782Z,8.07
2018-09-26T03:53:53.562Z,8.13
2018-09-26T03:56:22.358Z,8.15
2018-09-26T03:58:51.182Z,8.18
2018-09-26T04:01:20.020Z,8.10
2018-09-26T04:03:48.876Z,8.12
2018-09-26T04:06:17.681Z,8.22
2018-09-26T04:08:46.608Z,7.95
2018-09-26T04:11:15.406Z,8.23
2018-09-26T04:13:44.831Z,8.09
2018-09-26T04:16:13.649Z,8.12
2018-09-26T04:18:42.422Z,8.05
2018-09-26T04:21:11.258Z,8.13
2018-09-26T04:23:40.003Z,8.06
2018-09-26T04:26:08.950Z,8.02
2018-09-26T04:28:37.725Z,8.10
2018-09-26T04:31:06.596Z,8.05
2018-09-26T04:33:35.440Z,8.10
2018-09-26T04:36:04.245Z,8.10
2018-09-26T04:38:33.152Z,8.18
2018-09-26T04:41:02.280Z,8.02
2018-09-26T04:43:31.286Z,8.08
2018-09-26T04:46:00.145Z,8.12
2018-09-26T04:48:28.926Z,8.15
2018-09-26T04:50:57.905Z,8.14
2018-09-26T04:53:26.697Z,8.13
2018-09-26T04:55:55.522Z,8.18
2018-09-26T04:58:24.331Z,8.19
2018-09-26T05:00:53.075Z,8.25
2018-09-26T05:03:21.960Z,8.13
2018-09-26T05:05:50.741Z,8.21
2018-09-26T05:08:19.616Z,8.23
2018-09-26T05:10:48.379Z,8.20
2018-09-26T05:13:17.236Z,8.15
2018-09-26T05:15:46.104Z,8.18
2018-09-26T05:18:14.915Z,8.16
2018-09-26T05:20:43.690Z,8.25
2018-09-26T05:23:12.535Z,8.27
2018-09-26T05:25:41.280Z,8.32
2018-09-26T05:28:10.217Z,8.25
2018-09-26T05:30:38.980Z,8.35
2018-09-26T05:33:07.843Z,8.29
2018-09-26T05:35:36.617Z,8.31
2018-09-26T05:38:05.424Z,8.34
2018-09-26T05:40:34.891Z,8.33
2018-09-26T05:43:03.703Z,8.27
2018-09-26T05:45:32.484Z,8.42
2018-09-26T05:48:01.331Z,8.52
2018-09-26T05:50:30.207Z,8.48
2018-09-26T05:52:59.002Z,8.52
2018-09-26T05:55:27.851Z,8.53
2018-09-26T05:57:56.625Z,8.62
2018-09-26T06:00:25.442Z,8.74
2018-09-26T06:02:54.228Z,8.74
2018-09-26T06:05:23.532Z,8.82
2018-09-26T06:07:52.530Z,8.82
2018-09-26T06:10:21.339Z,8.91
2018-09-26T06:12:50.180Z,8.94
2018-09-26T06:15:19.260Z,9.06
2018-09-26T06:17:48.410Z,8.99
2018-09-26T06:20:17.239Z,9.04
2018-09-26T06:22:46.079Z,9.07
2018-09-26T06:25:15.003Z,9.03
2018-09-26T06:27:43.799Z,9.20
2018-09-26T06:30:12.740Z,9.33
2018-09-26T06:32:41.512Z,9.31
2018-09-26T06:35:10.496Z,9.36
2018-09-26T06:37:39.276Z,9.45
2018-09-26T06:40:08.269Z,9.59
2018-09-26T06:42:37.108Z,9.63
2018-09-26T06:45:09.266Z,9.76
2018-09-26T06:47:38.106Z,9.74
2018-09-26T06:50:07.081Z,9.75
2018-09-26T06:52:35.867Z,9.83
2018-09-26T06:55:04.732Z,9.95
2018-09-26T06:57:33.567Z,10.01
2018-09-26T07:00:02.361Z,9.91
2018-09-26T07:02:31.393Z,10.16
2018-09-26T07:05:00.182Z,10.20
2018-09-26T07:07:29.066Z,10.34
2018-09-26T07:09:57.832Z,10.32
2018-09-26T07:12:26.648Z,10.41
2018-09-26T07:14:55.383Z,10.47
2018-09-26T07:17:24.264Z,10.41
2018-09-26T07:19:53.135Z,10.56
2018-09-26T07:22:21.977Z,10.58
2018-09-26T07:24:50.765Z,10.71
2018-09-26T07:27:19.628Z,10.77
2018-09-26T07:29:48.439Z,10.95
2018-09-26T07:32:17.433Z,11.02
2018-09-26T07:34:46.220Z,11.02
2018-09-26T07:37:15.085Z,11.11
2018-09-26T07:39:43.872Z,11.24
2018-09-26T07:42:12.659Z,11.45
2018-09-26T07:44:41.575Z,11.51
2018-09-26T07:47:10.341Z,11.49
2018-09-26T07:49:39.192Z,11.67
2018-09-26T07:52:07.972Z,11.83
2018-09-26T07:54:36.823Z,11.81
2018-09-26T07:57:05.909Z,11.99
2018-09-26T07:59:34.750Z,11.97
2018-09-26T08:02:03.508Z,12.12
2018-09-26T08:04:32.310Z,12.26
2018-09-26T08:07:01.126Z,12.32
2018-09-26T08:09:30.015Z,12.44
2018-09-26T08:11:58.815Z,12.47
2018-09-26T08:14:27.737Z,12.63
2018-09-26T08:16:56.880Z,12.55
2018-09-26T08:19:25.689Z,12.58
2018-09-26T08:21:54.532Z,12.56
2018-09-26T08:24:23.724Z,12.60
2018-09-26T08:26:52.534Z,12.63
2018-09-26T08:29:21.376Z,12.57
2018-09-26T08:31:50.530Z,12.72
2018-09-26T08:34:19.411Z,12.77
2018-09-26T08:36:48.171Z,12.86
2018-09-26T08:39:16.956Z,12.71
2018-09-26T08:41:45.744Z,12.71
2018-09-26T08:44:14.718Z,12.76
2018-09-26T08:46:43.716Z,12.91
2018-09-26T08:49:12.579Z,13.05
2018-09-26T08:51:41.389Z,13.12
2018-09-26T08:54:10.168Z,13.18
2018-09-26T08:56:38.980Z,13.37
2018-09-26T08:59:07.847Z,13.40
2018-09-26T09:01:42.109Z,13.51
2018-09-26T09:04:10.907Z,13.37
2018-09-26T09:06:39.749Z,13.43
2018-09-26T09:09:09.082Z,13.43
2018-09-26T09:11:38.416Z,13.83
2018-09-26T09:14:07.530Z,13.75
2018-09-26T09:16:36.331Z,13.61
2018-09-26T09:19:05.171Z,13.80
2018-09-26T09:21:33.994Z,13.76
2018-09-26T09:24:02.865Z,13.87
2018-09-26T09:26:31.712Z,13.76
2018-09-26T09:29:00.465Z,13.91
2018-09-26T09:31:29.289Z,13.97
2018-09-26T09:33:58.053Z,14.09
2018-09-26T09:36:26.997Z,13.99
2018-09-26T09:38:55.721Z,13.96
2018-09-26T09:41:24.507Z,14.13
2018-09-26T09:43:53.304Z,14.06
2018-09-26T09:46:22.084Z,14.25
2018-09-26T09:48:51.133Z,14.13
2018-09-26T09:51:19.915Z,14.30
2018-09-26T09:53:49.070Z,14.26
2018-09-26T09:56:17.901Z,14.36
2018-09-26T09:58:46.695Z,14.42
2018-09-26T10:01:20.974Z,14.58
2018-09-26T10:03:49.885Z,14.58
2018-09-26T10:06:18.627Z,14.61
2018-09-26T10:08:47.469Z,14.58
2018-09-26T10:11:16.339Z,14.70
2018-09-26T10:13:45.920Z,14.58
2018-09-26T10:16:14.884Z,14.58
2018-09-26T10:18:44.311Z,14.76
2018-09-26T10:21:13.207Z,14.83
2018-09-26T10:23:42.068Z,14.68
2018-09-26T10:26:10.945Z,14.80
2018-09-26T10:28:40.384Z,14.88
2018-09-26T10:31:09.360Z,14.93
2018-09-26T10:33:38.176Z,14.96
2018-09-26T10:36:07.225Z,15.06
2018-09-26T10:38:36.039Z,15.01
2018-09-26T10:41:04.825Z,15.18
2018-09-26T10:43:33.613Z,15.13
2018-09-26T10:46:02.400Z,15.20
2018-09-26T10:48:31.399Z,15.23
2018-09-26T10:51:00.212Z,15.18
2018-09-26T10:53:28.976Z,15.47
2018-09-26T10:55:57.780Z,15.25
2018-09-26T10:58:26.540Z,15.56
2018-09-26T11:00:55.404Z,15.54
2018-09-26T11:03:24.176Z,15.75
2018-09-26T11:05:53.016Z,15.83
2018-09-26T11:08:21.900Z,15.85
2018-09-26T11:10:50.683Z,15.98
2018-09-26T11:13:19.502Z,16.01
2018-09-26T11:15:48.345Z,15.96
2018-09-26T11:18:17.120Z,16.05
2018-09-26T11:20:46.166Z,16.12
2018-09-26T11:23:14.977Z,15.91
2018-09-26T11:25:43.842Z,15.80
2018-09-26T11:28:12.629Z,15.95
2018-09-26T11:30:41.432Z,16.25
2018-09-26T11:33:10.366Z,16.36
2018-09-26T11:35:39.762Z,16.25
2018-09-26T11:38:08.787Z,16.26
2018-09-26T11:40:37.624Z,16.31
2018-09-26T11:43:06.604Z,16.41
2018-09-26T11:45:35.422Z,16.43
2018-09-26T11:48:04.275Z,16.55
2018-09-26T11:50:33.079Z,16.35
2018-09-26T11:53:01.869Z,16.54
2018-09-26T11:55:30.655Z,16.44
2018-09-26T11:57:59.784Z,16.54
2018-09-26T12:00:28.534Z,16.54
2018-09-26T12:02:57.394Z,16.53
2018-09-26T12:05:26.159Z,16.71
2018-09-26T12:07:54.967Z,16.78
2018-09-26T12:10:23.823Z,16.95
2018-09-26T12:12:52.583Z,17.09
2018-09-26T12:15:21.431Z,17.18
2018-09-26T12:17:50.245Z,17.37
2018-09-26T12:20:19.011Z,17.07
2018-09-26T12:22:48.079Z,17.02
2018-09-26T12:25:17.183Z,17.13
2018-09-26T12:27:46.687Z,17.18
2018-09-26T12:30:15.474Z,17.12
2018-09-26T12:32:44.336Z,17.05
2018-09-26T12:35:13.276Z,16.90
2018-09-26T12:37:42.128Z,17.01
2018-09-26T12:40:11.066Z,16.90
2018-09-26T12:42:39.936Z,17.00
2018-09-26T12:45:09.649Z,17.02
2018-09-26T12:47:38.475Z,17.34
2018-09-26T12:50:07.355Z,17.35
2018-09-26T12:52:36.296Z,17.47
2018-09-26T12:55:05.579Z,17.63
2018-09-26T12:57:34.411Z,17.65
2018-09-26T13:00:03.284Z,17.73
2018-09-26T13:02:32.123Z,18.01
2018-09-26T13:05:00.966Z,17.97
2018-09-26T13:07:29.724Z,17.82
2018-09-26T13:09:58.541Z,17.84
2018-09-26T13:12:27.343Z,17.82
2018-09-26T13:14:56.169Z,18.04
2018-09-26T13:17:25.181Z,17.94
2018-09-26T13:19:53.988Z,18.22
2018-09-26T13:22:22.788Z,18.16
2018-09-26T13:24:51.600Z,18.08
2018-09-26T13:27:20.356Z,18.15
2018-09-26T13:29:49.228Z,18.06
2018-09-26T13:32:18.075Z,17.91
2018-09-26T13:34:46.834Z,17.82
2018-09-26T13:37:15.682Z,17.82
2018-09-26T13:39:44.524Z,17.61
2018-09-26T13:42:13.423Z,17.50
2018-09-26T13:44:42.227Z,17.52
2018-09-26T13:47:10.999Z,17.60
2018-09-26T13:49:39.870Z,17.68
2018-09-26T13:52:08.710Z,17.95
2018-09-26T13:54:37.484Z,18.09
2018-09-26T13:57:06.465Z,18.02
2018-09-26T13:59:35.251Z,18.25
2018-09-26T14:02:04.062Z,18.25
2018-09-26T14:04:32.814Z,18.38
2018-09-26T14:07:01.676Z,18.69
2018-09-26T14:09:30.465Z,18.75
2018-09-26T14:11:59.276Z,18.73
2018-09-26T14:14:28.099Z,18.54
2018-09-26T14:16:56.897Z,18.50
2018-09-26T14:19:26.152Z,18.23
2018-09-26T14:21:54.952Z,18.18
2018-09-26T14:24:23.740Z,18.30
2018-09-26T14:26:52.562Z,18.40
2018-09-26T14:29:21.334Z,18.40
2018-09-26T14:31:50.471Z,18.45
2018-09-26T14:34:19.336Z,18.41
2018-09-26T14:36:48.139Z,18.58
2018-09-26T14:39:16.972Z,18.75
2018-09-26T14:41:45.708Z,18.50
2018-09-26T14:44:14.854Z,18.45
2018-09-26T14:46:43.644Z,18.37
2018-09-26T14:49:12.506Z,18.17
2018-09-26T14:51:41.336Z,18.32
2018-09-26T14:54:10.108Z,18.41
2018-09-26T14:56:38.942Z,18.16
2018-09-26T14:59:07.812Z,18.25
2018-09-26T15:01:36.863Z,18.09
2018-09-26T15:04:05.794Z,18.02
2018-09-26T15:06:34.612Z,18.05
2018-09-26T15:09:04.812Z,18.08
2018-09-26T15:11:33.595Z,17.95
2018-09-26T15:14:02.433Z,17.99
2018-09-26T15:16:31.192Z,18.05
2018-09-26T15:19:00.092Z,18.08
2018-09-26T15:21:28.941Z,18.03
2018-09-26T15:23:57.752Z,17.98
2018-09-26T15:26:26.578Z,17.77
2018-09-26T15:28:55.374Z,17.75
2018-09-26T15:31:24.143Z,17.86
2018-09-26T15:33:52.993Z,17.96
2018-09-26T15:36:21.787Z,17.73
2018-09-26T15:38:50.599Z,17.87
2018-09-26T15:41:19.340Z,17.76
2018-09-26T15:43:48.134Z,17.70
2018-09-26T15:46:17.283Z,17.76
2018-09-26T15:48:46.461Z,17.74
2018-09-26T15:51:15.228Z,17.65
2018-09-26T15:53:44.051Z,17.69
2018-09-26T15:56:12.865Z,17.60
2018-09-26T15:58:41.663Z,17.51
2018-09-26T16:01:10.462Z,17.52
2018-09-26T16:03:39.216Z,17.61
2018-09-26T16:06:08.096Z,17.69
2018-09-26T16:08:36.872Z,17.71
2018-09-26T16:11:05.783Z,17.65
2018-09-26T16:13:34.584Z,17.62
2018-09-26T16:16:03.676Z,17.42
2018-09-26T16:18:32.446Z,17.49
2018-09-26T16:21:01.555Z,17.37
2018-09-26T16:23:30.388Z,17.34
2018-09-26T16:25:59.245Z,17.33
2018-09-26T16:28:28.154Z,17.33
2018-09-26T16:30:56.836Z,17.29
2018-09-26T16:33:25.633Z,17.19
2018-09-26T16:35:54.550Z,17.15
2018-09-26T16:38:23.382Z,17.17
2018-09-26T16:40:52.205Z,17.14
2018-09-26T16:43:21.816Z,17.12
2018-09-26T16:45:52.112Z,17.04
2018-09-26T16:48:21.126Z,16.97
2018-09-26T16:50:50.324Z,16.99
2018-09-26T16:53:19.286Z,16.86
2018-09-26T16:55:48.095Z,16.97
2018-09-26T16:58:16.912Z,16.85
2018-09-26T17:00:45.807Z,16.79
2018-09-26T17:03:14.584Z,16.88
2018-09-26T17:05:43.377Z,16.78
2018-09-26T17:08:12.246Z,16.84
2018-09-26T17:10:41.127Z,16.84
2018-09-26T17:13:10.032Z,16.84
2018-09-26T17:15:38.846Z,16.76
2018-09-26T17:18:07.689Z,16.82
2018-09-26T17:20:36.471Z,16.74
2018-09-26T17:23:05.348Z,16.78
2018-09-26T17:25:34.154Z,16.66
2018-09-26T17:28:02.960Z,16.73
2018-09-26T17:30:31.712Z,16.61
2018-09-26T17:33:00.544Z,16.68
2018-09-26T17:35:29.328Z,16.68
2018-09-26T17:37:58.257Z,16.67
2018-09-26T17:40:27.197Z,16.72
2018-09-26T17:42:55.919Z,16.63
2018-09-26T17:45:24.727Z,16.65
2018-09-26T17:47:53.519Z,16.56
2018-09-26T17:50:22.411Z,16.56
2018-09-26T17:52:51.372Z,16.66
2018-09-26T17:55:20.184Z,16.53
2018-09-26T17:57:49.370Z,16.45
2018-09-26T18:00:18.259Z,16.53
2018-09-26T18:02:47.047Z,16.49
2018-09-26T18:05:15.956Z,16.50
2018-09-26T18:07:44.752Z,16.51
2018-09-26T18:10:13.567Z,16.52
2018-09-26T18:12:42.408Z,16.51
2018-09-26T18:15:12.189Z,16.43
2018-09-26T18:17:41.005Z,16.56
2018-09-26T18:20:09.848Z,16.52
2018-09-26T18:22:38.600Z,16.46
2018-09-26T18:25:07.906Z,16.39
2018-09-26T18:27:36.840Z,16.39
2018-09-26T18:30:06.249Z,16.38
2018-09-26T18:32:35.028Z,16.52
2018-09-26T18:35:03.876Z,16.46
2018-09-26T18:37:32.628Z,16.43
2018-09-26T18:40:01.552Z,16.52
2018-09-26T18:42:30.329Z,16.51
2018-09-26T18:45:05.602Z,16.42
2018-09-26T18:47:34.305Z,16.34
2018-09-26T18:50:04.120Z,16.38
2018-09-26T18:52:33.812Z,16.40
2018-09-26T18:55:07.141Z,16.38
2018-09-26T18:57:35.930Z,16.35
2018-09-26T19:00:05.005Z,16.42
2018-09-26T19:02:33.808Z,16.33
2018-09-26T19:05:03.052Z,16.28
2018-09-26T19:07:31.745Z,16.35
2018-09-26T19:10:00.577Z,16.18
2018-09-26T19:12:29.648Z,16.12
2018-09-26T19:14:58.770Z,16.26
2018-09-26T19:17:27.581Z,16.26
2018-09-26T19:19:56.378Z,16.35
2018-09-26T19:22:25.262Z,16.25
2018-09-26T19:24:54.161Z,16.28
2018-09-26T19:27:23.103Z,16.29
2018-09-26T19:29:51.896Z,16.26
2018-09-26T19:32:20.753Z,16.31
2018-09-26T19:34:49.529Z,16.19
2018-09-26T19:37:18.417Z,16.26
2018-09-26T19:39:47.245Z,16.19
2018-09-26T19:42:16.107Z,16.28
2018-09-26T19:44:44.909Z,16.13
2018-09-26T19:47:13.785Z,16.15
2018-09-26T19:49:42.650Z,16.27
2018-09-26T19:52:11.880Z,16.32
2018-09-26T19:54:40.716Z,16.19
2018-09-26T19:57:09.556Z,16.27
2018-09-26T19:59:38.342Z,16.21
2018-09-26T20:02:07.539Z,16.27
2018-09-26T20:04:36.454Z,16.22
2018-09-26T20:07:05.466Z,16.27
2018-09-26T20:09:34.288Z,16.41
2018-09-26T20:12:03.092Z,16.24
2018-09-26T20:14:31.963Z,16.35
2018-09-26T20:17:00.772Z,16.37
2018-09-26T20:19:29.592Z,16.31
2018-09-26T20:21:58.409Z,16.34
2018-09-26T20:24:27.247Z,16.42
2018-09-26T20:26:56.142Z,16.40
2018-09-26T20:29:25.071Z,16.48
2018-09-26T20:31:53.795Z,16.48
2018-09-26T20:34:22.604Z,16.38
2018-09-26T20:36:52.713Z,16.45
2018-09-26T20:39:21.608Z,16.42
2018-09-26T20:41:50.391Z,16.51
2018-09-26T20:44:19.295Z,16.40
2018-09-26T20:46:48.094Z,16.35
2018-09-26T20:49:16.948Z,16.42
2018-09-26T20:51:45.808Z,16.38
2018-09-26T20:54:15.000Z,16.31
2018-09-26T20:56:43.776Z,16.46
2018-09-26T20:59:13.005Z,16.34
2018-09-26T21:01:41.884Z,16.40
2018-09-26T21:04:10.707Z,16.36
2018-09-26T21:06:39.548Z,16.38
2018-09-26T21:09:10.105Z,16.37
2018-09-26T21:11:39.292Z,16.30
2018-09-26T21:14:08.412Z,16.35
2018-09-26T21:16:37.404Z,16.42
2018-09-26T21:19:06.293Z,16.25
2018-09-26T21:21:35.145Z,16.26
2018-09-26T21:24:03.965Z,16.30
2018-09-26T21:26:32.795Z,16.35
2018-09-26T21:29:01.645Z,16.31
2018-09-26T21:31:30.494Z,16.26
2018-09-26T21:33:59.285Z,16.24
2018-09-26T21:36:28.130Z,16.29
2018-09-26T21:38:56.999Z,16.29
2018-09-26T21:41:25.864Z,16.14
2018-09-26T21:43:54.664Z,16.31
2018-09-26T21:46:28.480Z,16.24
2018-09-26T21:48:57.271Z,16.23
2018-09-26T21:51:26.189Z,16.18
2018-09-26T21:53:55.073Z,16.21
2018-09-26T21:56:23.925Z,16.09
2018-09-26T21:58:53.037Z,15.95
2018-09-26T22:01:21.935Z,16.17
2018-09-26T22:03:50.732Z,16.24
2018-09-26T22:06:19.872Z,16.21
2018-09-26T22:08:48.701Z,16.19
2018-09-26T22:11:17.520Z,16.15
2018-09-26T22:13:46.376Z,16.12
2018-09-26T22:16:15.207Z,16.14
2018-09-26T22:18:44.086Z,16.03
2018-09-26T22:21:12.893Z,16.01
2018-09-26T22:23:41.755Z,16.07
2018-09-26T22:26:10.568Z,16.06
2018-09-26T22:28:39.392Z,16.14
2018-09-26T22:31:08.423Z,16.11
2018-09-26T22:33:37.262Z,15.93
2018-09-26T22:36:06.106Z,16.10
2018-09-26T22:38:34.928Z,15.94
2018-09-26T22:41:03.761Z,16.06
2018-09-26T22:43:32.644Z,16.10
2018-09-26T22:46:01.732Z,16.02
2018-09-26T22:48:30.613Z,16.13
2018-09-26T22:50:59.433Z,16.07
2018-09-26T22:53:28.264Z,16.17
2018-09-26T22:55:57.281Z,16.11
2018-09-26T22:58:26.128Z,16.09
2018-09-26T23:00:54.935Z,16.12
2018-09-26T23:03:23.736Z,15.93
2018-09-26T23:05:52.583Z,16.02
2018-09-26T23:08:21.439Z,16.07
2018-09-26T23:10:50.642Z,16.03
2018-09-26T23:13:19.448Z,16.03
2018-09-26T23:15:48.314Z,16.01
2018-09-26T23:18:17.199Z,16.05
2018-09-26T23:20:46.155Z,16.03
2018-09-26T23:23:14.960Z,16.05
2018-09-26T23:25:43.801Z,16.03
2018-09-26T23:28:12.615Z,15.95
2018-09-26T23:30:41.461Z,15.93
2018-09-26T23:33:10.649Z,16.02
2018-09-26T23:35:39.485Z,15.93
2018-09-26T23:38:08.281Z,15.90
2018-09-26T23:40:37.134Z,15.95
2018-09-26T23:43:06.060Z,16.06
2018-09-26T23:45:34.969Z,16.02
2018-09-26T23:48:03.781Z,15.99
2018-09-26T23:50:32.695Z,15.93
2018-09-26T23:53:01.577Z,15.93
2018-09-26T23:55:30.409Z,15.96
2018-09-26T23:57:59.271Z,15.95
